Archival Weather

Half Moon Bay

Half Moon Bay, California (KHAF)

Report from: Tuesday, September 19, 2023 11:55 AM PDT
Current time: Thursday, December 7, 2023 1:45 AM PST

Current weather – Weather history – Daily summaries
Weather forecast

Present weatherHaze
Temperature18.0°C (64.4°F)
Dew point14.0°C (57.2°F)
Winds Calm
Visibility5 mi. (8 km)
Clouds Ceiling: Overcast 1,700 ft. (518 m)
Altimeter30.00 in.Hg (1016 mB)
Relative humidity77 %
Density altitude484 ft. (148 m)
Remarks Fully automated report
Automated weather observing station with precipitation discriminator
Flight conditions Marginal Visual Meteorological Conditions
Raw dataKHAF 191855Z AUTO 00000KT 5SM HZ OVC017 18/14 A3000 RMK AO2
An error has occurred. This application may no longer respond until reloaded. Reload 🗙